sensor_id;sensor_type;location;lat;lon;timestamp;pressure;altitude;pressure_sealevel;temperature;humidity
51524;BME280;37610;51.790;21.590;2022-10-29T00:03:41;100548.11;;;13.32;76.96
51524;BME280;37610;51.790;21.590;2022-10-29T00:07:42;100542.38;;;13.40;77.35
51524;BME280;37610;51.790;21.590;2022-10-29T00:11:44;100541.66;;;13.46;77.50
51524;BME280;37610;51.790;21.590;2022-10-29T00:15:46;100542.14;;;13.52;77.33
51524;BME280;37610;51.790;21.590;2022-10-29T00:19:47;100542.83;;;13.57;77.13
51524;BME280;37610;51.790;21.590;2022-10-29T00:23:52;100540.45;;;13.63;77.06
51524;BME280;37610;51.790;21.590;2022-10-29T00:27:55;100532.41;;;13.66;76.85
51524;BME280;37610;51.790;21.590;2022-10-29T00:31:57;100539.95;;;13.67;76.73
51524;BME280;37610;51.790;21.590;2022-10-29T00:36:00;100536.89;;;13.68;76.78
51524;BME280;37610;51.790;21.590;2022-10-29T00:40:02;100533.41;;;13.69;76.61
51524;BME280;37610;51.790;21.590;2022-10-29T00:48:15;100520.92;;;13.68;76.66
51524;BME280;37610;51.790;21.590;2022-10-29T00:52:18;100517.11;;;13.69;76.59
51524;BME280;37610;51.790;21.590;2022-10-29T00:56:24;100512.81;;;13.69;76.52
51524;BME280;37610;51.790;21.590;2022-10-29T01:00:27;100512.86;;;13.69;76.48
51524;BME280;37610;51.790;21.590;2022-10-29T01:04:29;100509.23;;;13.69;76.39
51524;BME280;37610;51.790;21.590;2022-10-29T01:08:31;100503.75;;;13.66;76.28
51524;BME280;37610;51.790;21.590;2022-10-29T01:17:08;100490.73;;;13.57;76.22
51524;BME280;37610;51.790;21.590;2022-10-29T01:21:37;100486.29;;;13.57;76.33
51524;BME280;37610;51.790;21.590;2022-10-29T01:35:20;100489.46;;;13.46;76.10
51524;BME280;37610;51.790;21.590;2022-10-29T01:43:40;100490.79;;;13.42;76.24
51524;BME280;37610;51.790;21.590;2022-10-29T01:47:48;100492.34;;;13.41;76.22
51524;BME280;37610;51.790;21.590;2022-10-29T01:51:53;100479.90;;;13.39;76.20
51524;BME280;37610;51.790;21.590;2022-10-29T01:55:56;100475.96;;;13.37;76.16
51524;BME280;37610;51.790;21.590;2022-10-29T02:00:02;100479.86;;;13.34;76.19
51524;BME280;37610;51.790;21.590;2022-10-29T02:12:29;100474.08;;;13.25;75.94
51524;BME280;37610;51.790;21.590;2022-10-29T02:16:32;100479.35;;;13.22;75.90
51524;BME280;37610;51.790;21.590;2022-10-29T02:20:34;100480.90;;;13.18;75.90
51524;BME280;37610;51.790;21.590;2022-10-29T02:24:36;100480.71;;;13.15;75.85
51524;BME280;37610;51.790;21.590;2022-10-29T02:28:37;100477.04;;;13.12;75.83
51524;BME280;37610;51.790;21.590;2022-10-29T02:32:39;100473.48;;;13.06;75.92
51524;BME280;37610;51.790;21.590;2022-10-29T02:36:40;100471.77;;;13.02;75.99
51524;BME280;37610;51.790;21.590;2022-10-29T02:40:42;100467.11;;;13.00;75.94
51524;BME280;37610;51.790;21.590;2022-10-29T02:44:43;100461.72;;;12.95;75.91
51524;BME280;37610;51.790;21.590;2022-10-29T02:48:45;100461.38;;;12.95;75.95
51524;BME280;37610;51.790;21.590;2022-10-29T02:52:47;100460.12;;;12.95;76.03
51524;BME280;37610;51.790;21.590;2022-10-29T02:56:49;100453.95;;;12.94;75.93
51524;BME280;37610;51.790;21.590;2022-10-29T03:00:51;100448.99;;;12.91;75.69
51524;BME280;37610;51.790;21.590;2022-10-29T03:04:52;100445.15;;;12.86;75.67
51524;BME280;37610;51.790;21.590;2022-10-29T03:08:54;100442.58;;;12.86;75.96
51524;BME280;37610;51.790;21.590;2022-10-29T03:12:59;100441.21;;;12.84;76.03
51524;BME280;37610;51.790;21.590;2022-10-29T03:17:00;100428.70;;;12.84;75.94
51524;BME280;37610;51.790;21.590;2022-10-29T03:21:03;100421.06;;;12.80;75.77
51524;BME280;37610;51.790;21.590;2022-10-29T03:25:05;100414.55;;;12.79;75.78
51524;BME280;37610;51.790;21.590;2022-10-29T03:29:06;100412.62;;;12.75;75.67
51524;BME280;37610;51.790;21.590;2022-10-29T03:33:08;100410.13;;;12.71;75.59
51524;BME280;37610;51.790;21.590;2022-10-29T03:37:09;100413.00;;;12.67;75.62
51524;BME280;37610;51.790;21.590;2022-10-29T03:41:11;100413.77;;;12.63;75.64
51524;BME280;37610;51.790;21.590;2022-10-29T03:45:12;100416.80;;;12.62;75.75
51524;BME280;37610;51.790;21.590;2022-10-29T03:49:14;100413.42;;;12.59;75.65
51524;BME280;37610;51.790;21.590;2022-10-29T03:53:16;100417.43;;;12.57;75.71
51524;BME280;37610;51.790;21.590;2022-10-29T03:57:17;100412.80;;;12.55;75.80
51524;BME280;37610;51.790;21.590;2022-10-29T04:01:19;100405.48;;;12.55;75.83
51524;BME280;37610;51.790;21.590;2022-10-29T04:05:20;100398.71;;;12.56;75.88
51524;BME280;37610;51.790;21.590;2022-10-29T04:09:22;100397.67;;;12.56;75.86
51524;BME280;37610;51.790;21.590;2022-10-29T04:13:23;100390.25;;;12.54;75.90
51524;BME280;37610;51.790;21.590;2022-10-29T04:17:25;100388.98;;;12.57;75.95
51524;BME280;37610;51.790;21.590;2022-10-29T04:21:26;100386.41;;;12.58;75.92
51524;BME280;37610;51.790;21.590;2022-10-29T04:25:28;100379.06;;;12.55;75.91
51524;BME280;37610;51.790;21.590;2022-10-29T04:29:29;100388.31;;;12.55;75.87
51524;BME280;37610;51.790;21.590;2022-10-29T04:33:31;100396.33;;;12.57;75.94
51524;BME280;37610;51.790;21.590;2022-10-29T04:37:32;100408.63;;;12.57;76.01
51524;BME280;37610;51.790;21.590;2022-10-29T04:41:34;100409.95;;;12.57;75.99
51524;BME280;37610;51.790;21.590;2022-10-29T04:45:35;100415.84;;;12.60;76.12
51524;BME280;37610;51.790;21.590;2022-10-29T04:49:37;100412.64;;;12.63;76.04
51524;BME280;37610;51.790;21.590;2022-10-29T04:53:38;100414.77;;;12.66;76.04
51524;BME280;37610;51.790;21.590;2022-10-29T04:57:40;100417.23;;;12.70;76.03
51524;BME280;37610;51.790;21.590;2022-10-29T05:01:41;100407.63;;;12.73;75.97
51524;BME280;37610;51.790;21.590;2022-10-29T05:05:43;100398.27;;;12.75;75.75
51524;BME280;37610;51.790;21.590;2022-10-29T05:09:44;100393.59;;;12.80;75.77
51524;BME280;37610;51.790;21.590;2022-10-29T05:13:46;100382.27;;;12.83;75.63
51524;BME280;37610;51.790;21.590;2022-10-29T05:17:47;100390.85;;;12.86;75.54
51524;BME280;37610;51.790;21.590;2022-10-29T05:21:49;100382.73;;;12.86;75.40
51524;BME280;37610;51.790;21.590;2022-10-29T05:25:50;100376.88;;;12.85;75.32
51524;BME280;37610;51.790;21.590;2022-10-29T05:29:53;100372.75;;;12.86;75.38
51524;BME280;37610;51.790;21.590;2022-10-29T05:33:54;100376.98;;;12.85;75.23
51524;BME280;37610;51.790;21.590;2022-10-29T05:37:56;100389.15;;;12.87;75.28
51524;BME280;37610;51.790;21.590;2022-10-29T05:41:57;100394.61;;;12.90;75.29
51524;BME280;37610;51.790;21.590;2022-10-29T05:46:01;100399.50;;;12.94;75.31
51524;BME280;37610;51.790;21.590;2022-10-29T05:50:04;100393.77;;;12.96;75.29
51524;BME280;37610;51.790;21.590;2022-10-29T05:54:05;100391.53;;;12.97;75.18
51524;BME280;37610;51.790;21.590;2022-10-29T05:58:12;100397.66;;;13.00;75.26
51524;BME280;37610;51.790;21.590;2022-10-29T06:02:14;100414.86;;;13.01;75.10
51524;BME280;37610;51.790;21.590;2022-10-29T06:06:15;100418.69;;;13.01;75.17
51524;BME280;37610;51.790;21.590;2022-10-29T06:10:16;100413.05;;;13.02;75.09
51524;BME280;37610;51.790;21.590;2022-10-29T06:14:18;100429.35;;;13.04;75.22
51524;BME280;37610;51.790;21.590;2022-10-29T06:18:19;100428.19;;;13.08;75.31
51524;BME280;37610;51.790;21.590;2022-10-29T06:22:21;100422.50;;;13.11;75.31
51524;BME280;37610;51.790;21.590;2022-10-29T06:26:22;100421.85;;;13.15;75.34
51524;BME280;37610;51.790;21.590;2022-10-29T06:30:24;100416.52;;;13.17;75.32
51524;BME280;37610;51.790;21.590;2022-10-29T06:34:25;100420.70;;;13.19;75.23
51524;BME280;37610;51.790;21.590;2022-10-29T06:38:27;100422.75;;;13.19;75.12
51524;BME280;37610;51.790;21.590;2022-10-29T06:42:29;100417.21;;;13.22;75.19
51524;BME280;37610;51.790;21.590;2022-10-29T06:46:30;100423.25;;;13.23;75.16
51524;BME280;37610;51.790;21.590;2022-10-29T06:50:34;100419.56;;;13.24;75.30
51524;BME280;37610;51.790;21.590;2022-10-29T06:54:35;100422.59;;;13.28;75.13
51524;BME280;37610;51.790;21.590;2022-10-29T06:58:37;100418.51;;;13.32;75.26
51524;BME280;37610;51.790;21.590;2022-10-29T07:02:38;100410.30;;;13.37;75.29
51524;BME280;37610;51.790;21.590;2022-10-29T07:06:40;100412.13;;;13.42;75.25
51524;BME280;37610;51.790;21.590;2022-10-29T07:10:42;100417.55;;;13.46;75.19
51524;BME280;37610;51.790;21.590;2022-10-29T07:14:43;100419.66;;;13.48;75.10
51524;BME280;37610;51.790;21.590;2022-10-29T07:18:44;100420.95;;;13.49;74.97
51524;BME280;37610;51.790;21.590;2022-10-29T07:22:46;100425.73;;;13.51;75.09
51524;BME280;37610;51.790;21.590;2022-10-29T07:26:48;100425.27;;;13.52;74.99
51524;BME280;37610;51.790;21.590;2022-10-29T07:30:50;100430.52;;;13.54;74.98
51524;BME280;37610;51.790;21.590;2022-10-29T07:34:52;100432.63;;;13.56;75.02
51524;BME280;37610;51.790;21.590;2022-10-29T07:38:53;100436.63;;;13.63;75.21
51524;BME280;37610;51.790;21.590;2022-10-29T07:42:55;100433.90;;;13.69;75.36
51524;BME280;37610;51.790;21.590;2022-10-29T07:46:56;100415.77;;;13.77;75.27
51524;BME280;37610;51.790;21.590;2022-10-29T07:50:59;100412.64;;;13.83;75.00
51524;BME280;37610;51.790;21.590;2022-10-29T07:55:01;100408.48;;;13.88;74.86
51524;BME280;37610;51.790;21.590;2022-10-29T07:59:03;100414.48;;;13.92;74.82
51524;BME280;37610;51.790;21.590;2022-10-29T08:03:05;100415.08;;;13.97;74.80
51524;BME280;37610;51.790;21.590;2022-10-29T08:07:07;100418.80;;;14.03;74.86
51524;BME280;37610;51.790;21.590;2022-10-29T08:11:08;100413.45;;;14.09;74.81
51524;BME280;37610;51.790;21.590;2022-10-29T08:15:10;100408.92;;;14.14;74.39
51524;BME280;37610;51.790;21.590;2022-10-29T08:19:11;100403.95;;;14.20;74.40
51524;BME280;37610;51.790;21.590;2022-10-29T08:23:13;100405.75;;;14.28;74.19
51524;BME280;37610;51.790;21.590;2022-10-29T08:27:14;100399.08;;;14.36;74.26
51524;BME280;37610;51.790;21.590;2022-10-29T08:31:16;100392.86;;;14.46;74.28
51524;BME280;37610;51.790;21.590;2022-10-29T08:35:19;100397.36;;;14.54;73.67
51524;BME280;37610;51.790;21.590;2022-10-29T08:39:20;100396.79;;;14.61;73.63
51524;BME280;37610;51.790;21.590;2022-10-29T08:47:45;100395.89;;;14.76;73.19
51524;BME280;37610;51.790;21.590;2022-10-29T08:51:59;100399.31;;;14.87;73.70
51524;BME280;37610;51.790;21.590;2022-10-29T08:56:07;100398.29;;;14.97;73.24
51524;BME280;37610;51.790;21.590;2022-10-29T09:00:24;100389.44;;;15.05;73.52
51524;BME280;37610;51.790;21.590;2022-10-29T09:04:33;100386.40;;;15.14;73.69
51524;BME280;37610;51.790;21.590;2022-10-29T09:08:45;100384.80;;;15.21;73.01
51524;BME280;37610;51.790;21.590;2022-10-29T09:26:01;100403.64;;;15.41;72.64
51524;BME280;37610;51.790;21.590;2022-10-29T09:30:16;100403.10;;;15.49;72.60
51524;BME280;37610;51.790;21.590;2022-10-29T09:34:52;100394.94;;;15.58;72.74
51524;BME280;37610;51.790;21.590;2022-10-29T09:39:02;100386.74;;;15.69;72.43
51524;BME280;37610;51.790;21.590;2022-10-29T09:51:56;100403.57;;;15.90;71.92
51524;BME280;37610;51.790;21.590;2022-10-29T09:56:01;100406.70;;;15.95;72.00
51524;BME280;37610;51.790;21.590;2022-10-29T10:00:15;100409.30;;;16.00;72.11
51524;BME280;37610;51.790;21.590;2022-10-29T10:08:26;100389.13;;;16.09;71.66
51524;BME280;37610;51.790;21.590;2022-10-29T10:12:43;100380.29;;;16.15;71.98
51524;BME280;37610;51.790;21.590;2022-10-29T10:16:45;100359.89;;;16.21;71.89
51524;BME280;37610;51.790;21.590;2022-10-29T10:21:11;100354.23;;;16.26;71.80
51524;BME280;37610;51.790;21.590;2022-10-29T10:25:34;100353.41;;;16.31;71.26
51524;BME280;37610;51.790;21.590;2022-10-29T10:29:36;100353.16;;;16.35;70.93
51524;BME280;37610;51.790;21.590;2022-10-29T10:33:49;100349.59;;;16.39;70.84
51524;BME280;37610;51.790;21.590;2022-10-29T10:37:52;100350.92;;;16.45;71.49
51524;BME280;37610;51.790;21.590;2022-10-29T10:41:58;100354.77;;;16.52;71.38
51524;BME280;37610;51.790;21.590;2022-10-29T10:46:04;100367.98;;;16.57;71.36
51524;BME280;37610;51.790;21.590;2022-10-29T10:50:20;100366.20;;;16.61;71.55
51524;BME280;37610;51.790;21.590;2022-10-29T10:54:44;100370.35;;;16.64;71.51
51524;BME280;37610;51.790;21.590;2022-10-29T10:59:10;100367.19;;;16.66;71.59
51524;BME280;37610;51.790;21.590;2022-10-29T11:03:35;100370.25;;;16.68;71.90
51524;BME280;37610;51.790;21.590;2022-10-29T11:07:54;100363.80;;;16.75;72.17
51524;BME280;37610;51.790;21.590;2022-10-29T11:12:10;100347.68;;;16.81;72.03
51524;BME280;37610;51.790;21.590;2022-10-29T11:16:44;100332.71;;;16.89;72.04
51524;BME280;37610;51.790;21.590;2022-10-29T11:21:02;100353.11;;;16.98;71.79
51524;BME280;37610;51.790;21.590;2022-10-29T11:25:20;100380.45;;;17.06;71.63
51524;BME280;37610;51.790;21.590;2022-10-29T11:29:39;100379.77;;;17.15;71.89
51524;BME280;37610;51.790;21.590;2022-10-29T11:33:46;100390.61;;;17.20;71.41
51524;BME280;37610;51.790;21.590;2022-10-29T11:42:11;100397.19;;;17.17;71.17
51524;BME280;37610;51.790;21.590;2022-10-29T12:04:32;100384.70;;;17.21;71.95
51524;BME280;37610;51.790;21.590;2022-10-29T12:12:50;100376.91;;;17.20;72.29
51524;BME280;37610;51.790;21.590;2022-10-29T12:17:04;100381.06;;;17.20;72.45
51524;BME280;37610;51.790;21.590;2022-10-29T12:21:18;100386.29;;;17.20;72.72
51524;BME280;37610;51.790;21.590;2022-10-29T12:25:45;100389.20;;;17.18;72.82
51524;BME280;37610;51.790;21.590;2022-10-29T12:29:58;100395.98;;;17.18;73.09
51524;BME280;37610;51.790;21.590;2022-10-29T12:34:08;100392.27;;;17.20;73.32
51524;BME280;37610;51.790;21.590;2022-10-29T12:42:27;100397.93;;;17.24;73.48
51524;BME280;37610;51.790;21.590;2022-10-29T12:46:47;100397.54;;;17.23;73.69
51524;BME280;37610;51.790;21.590;2022-10-29T12:55:04;100389.59;;;17.19;73.66
51524;BME280;37610;51.790;21.590;2022-10-29T12:59:32;100395.25;;;17.16;73.55
51524;BME280;37610;51.790;21.590;2022-10-29T13:04:10;100394.45;;;17.15;73.55
51524;BME280;37610;51.790;21.590;2022-10-29T13:08:26;100385.39;;;17.16;73.65
51524;BME280;37610;51.790;21.590;2022-10-29T13:17:02;100389.58;;;17.18;73.23
51524;BME280;37610;51.790;21.590;2022-10-29T13:21:05;100397.02;;;17.16;72.90
51524;BME280;37610;51.790;21.590;2022-10-29T13:41:52;100399.02;;;17.04;72.42
51524;BME280;37610;51.790;21.590;2022-10-29T13:50:16;100400.58;;;17.01;72.29
51524;BME280;37610;51.790;21.590;2022-10-29T13:54:29;100399.48;;;16.99;72.36
51524;BME280;37610;51.790;21.590;2022-10-29T13:58:33;100394.48;;;16.98;72.30
51524;BME280;37610;51.790;21.590;2022-10-29T14:03:01;100403.61;;;16.96;72.34
51524;BME280;37610;51.790;21.590;2022-10-29T14:07:05;100410.78;;;16.95;72.20
51524;BME280;37610;51.790;21.590;2022-10-29T14:11:18;100407.07;;;16.92;72.29
51524;BME280;37610;51.790;21.590;2022-10-29T14:15:22;100405.27;;;16.90;72.36
51524;BME280;37610;51.790;21.590;2022-10-29T14:19:25;100398.81;;;16.87;72.31
51524;BME280;37610;51.790;21.590;2022-10-29T14:23:28;100398.59;;;16.82;72.30
51524;BME280;37610;51.790;21.590;2022-10-29T14:27:30;100394.31;;;16.78;72.22
51524;BME280;37610;51.790;21.590;2022-10-29T14:31:31;100399.86;;;16.75;72.20
51524;BME280;37610;51.790;21.590;2022-10-29T14:35:33;100405.02;;;16.72;72.19
51524;BME280;37610;51.790;21.590;2022-10-29T14:39:44;100407.23;;;16.67;72.16
51524;BME280;37610;51.790;21.590;2022-10-29T14:48:08;100402.24;;;16.56;72.27
51524;BME280;37610;51.790;21.590;2022-10-29T14:52:26;100403.25;;;16.50;72.38
51524;BME280;37610;51.790;21.590;2022-10-29T14:56:37;100403.70;;;16.46;72.43
51524;BME280;37610;51.790;21.590;2022-10-29T15:00:53;100407.63;;;16.42;72.48
51524;BME280;37610;51.790;21.590;2022-10-29T15:04:57;100411.46;;;16.38;72.55
51524;BME280;37610;51.790;21.590;2022-10-29T15:09:00;100414.19;;;16.32;72.51
51524;BME280;37610;51.790;21.590;2022-10-29T15:13:27;100414.98;;;16.27;72.65
51524;BME280;37610;51.790;21.590;2022-10-29T15:17:31;100414.57;;;16.21;72.82
51524;BME280;37610;51.790;21.590;2022-10-29T15:21:32;100416.79;;;16.15;72.79
51524;BME280;37610;51.790;21.590;2022-10-29T15:25:38;100414.23;;;16.09;72.89
51524;BME280;37610;51.790;21.590;2022-10-29T15:29:44;100418.65;;;16.03;72.99
51524;BME280;37610;51.790;21.590;2022-10-29T15:33:50;100419.47;;;15.99;73.04
51524;BME280;37610;51.790;21.590;2022-10-29T15:37:54;100426.08;;;15.97;73.11
51524;BME280;37610;51.790;21.590;2022-10-29T15:41:58;100423.68;;;15.94;73.18
51524;BME280;37610;51.790;21.590;2022-10-29T15:46:01;100421.42;;;15.90;73.23
51524;BME280;37610;51.790;21.590;2022-10-29T15:50:05;100422.31;;;15.87;73.32
51524;BME280;37610;51.790;21.590;2022-10-29T15:54:10;100429.45;;;15.84;73.31
51524;BME280;37610;51.790;21.590;2022-10-29T15:58:19;100433.12;;;15.81;73.33
51524;BME280;37610;51.790;21.590;2022-10-29T16:02:24;100435.02;;;15.78;73.44
51524;BME280;37610;51.790;21.590;2022-10-29T16:06:25;100434.20;;;15.75;73.45
51524;BME280;37610;51.790;21.590;2022-10-29T16:10:27;100436.54;;;15.71;73.50
51524;BME280;37610;51.790;21.590;2022-10-29T16:14:28;100429.22;;;15.68;73.53
51524;BME280;37610;51.790;21.590;2022-10-29T16:18:31;100427.80;;;15.66;73.52
51524;BME280;37610;51.790;21.590;2022-10-29T16:22:32;100427.77;;;15.64;73.62
51524;BME280;37610;51.790;21.590;2022-10-29T16:26:34;100424.55;;;15.61;73.61
51524;BME280;37610;51.790;21.590;2022-10-29T16:30:36;100424.38;;;15.58;73.63
51524;BME280;37610;51.790;21.590;2022-10-29T16:34:38;100425.20;;;15.57;73.56
51524;BME280;37610;51.790;21.590;2022-10-29T16:38:39;100428.05;;;15.53;73.68
51524;BME280;37610;51.790;21.590;2022-10-29T16:42:41;100436.45;;;15.50;73.78
51524;BME280;37610;51.790;21.590;2022-10-29T16:46:43;100435.88;;;15.47;73.67
51524;BME280;37610;51.790;21.590;2022-10-29T16:50:44;100432.98;;;15.44;73.77
51524;BME280;37610;51.790;21.590;2022-10-29T16:54:46;100428.64;;;15.41;73.78
51524;BME280;37610;51.790;21.590;2022-10-29T16:58:47;100424.98;;;15.38;73.80
51524;BME280;37610;51.790;21.590;2022-10-29T17:02:49;100430.30;;;15.36;73.87
51524;BME280;37610;51.790;21.590;2022-10-29T17:06:50;100428.92;;;15.33;73.92
51524;BME280;37610;51.790;21.590;2022-10-29T17:10:57;100426.73;;;15.31;74.04
51524;BME280;37610;51.790;21.590;2022-10-29T17:14:59;100430.95;;;15.29;74.01
51524;BME280;37610;51.790;21.590;2022-10-29T17:19:01;100430.09;;;15.27;74.07
51524;BME280;37610;51.790;21.590;2022-10-29T17:23:02;100426.61;;;15.23;74.03
51524;BME280;37610;51.790;21.590;2022-10-29T17:27:04;100430.56;;;15.19;74.14
51524;BME280;37610;51.790;21.590;2022-10-29T17:31:07;100433.39;;;15.13;74.21
51524;BME280;37610;51.790;21.590;2022-10-29T17:35:08;100425.11;;;15.08;74.21
51524;BME280;37610;51.790;21.590;2022-10-29T17:39:10;100428.22;;;15.03;74.34
51524;BME280;37610;51.790;21.590;2022-10-29T17:43:12;100433.34;;;15.00;74.52
51524;BME280;37610;51.790;21.590;2022-10-29T17:47:14;100444.23;;;14.97;74.56
51524;BME280;37610;51.790;21.590;2022-10-29T17:51:16;100447.91;;;14.92;74.51
51524;BME280;37610;51.790;21.590;2022-10-29T17:55:18;100441.77;;;14.87;74.68
51524;BME280;37610;51.790;21.590;2022-10-29T17:59:20;100442.41;;;14.85;74.79
51524;BME280;37610;51.790;21.590;2022-10-29T18:03:24;100441.56;;;14.82;75.05
51524;BME280;37610;51.790;21.590;2022-10-29T18:07:26;100442.54;;;14.79;75.06
51524;BME280;37610;51.790;21.590;2022-10-29T18:11:28;100446.98;;;14.78;75.30
51524;BME280;37610;51.790;21.590;2022-10-29T18:15:30;100452.17;;;14.78;75.37
51524;BME280;37610;51.790;21.590;2022-10-29T18:19:31;100451.52;;;14.77;75.51
51524;BME280;37610;51.790;21.590;2022-10-29T18:23:33;100443.91;;;14.77;75.67
51524;BME280;37610;51.790;21.590;2022-10-29T18:27:34;100445.14;;;14.77;75.83
51524;BME280;37610;51.790;21.590;2022-10-29T18:31:36;100436.14;;;14.76;75.89
51524;BME280;37610;51.790;21.590;2022-10-29T18:35:40;100443.46;;;14.73;75.99
51524;BME280;37610;51.790;21.590;2022-10-29T18:39:41;100445.79;;;14.71;76.14
51524;BME280;37610;51.790;21.590;2022-10-29T18:43:43;100451.29;;;14.67;76.18
51524;BME280;37610;51.790;21.590;2022-10-29T18:47:45;100455.50;;;14.64;76.30
51524;BME280;37610;51.790;21.590;2022-10-29T18:51:46;100460.29;;;14.61;76.56
51524;BME280;37610;51.790;21.590;2022-10-29T18:55:52;100458.48;;;14.58;76.57
51524;BME280;37610;51.790;21.590;2022-10-29T18:59:54;100454.19;;;14.55;76.94
51524;BME280;37610;51.790;21.590;2022-10-29T19:03:57;100450.20;;;14.52;76.85
51524;BME280;37610;51.790;21.590;2022-10-29T19:07:59;100455.43;;;14.52;76.87
51524;BME280;37610;51.790;21.590;2022-10-29T19:12:01;100449.23;;;14.49;76.96
51524;BME280;37610;51.790;21.590;2022-10-29T19:16:04;100449.48;;;14.48;77.04
51524;BME280;37610;51.790;21.590;2022-10-29T19:20:07;100454.94;;;14.47;77.05
51524;BME280;37610;51.790;21.590;2022-10-29T19:24:12;100458.72;;;14.45;77.16
51524;BME280;37610;51.790;21.590;2022-10-29T19:28:14;100458.77;;;14.44;77.13
51524;BME280;37610;51.790;21.590;2022-10-29T19:32:15;100457.23;;;14.41;77.23
51524;BME280;37610;51.790;21.590;2022-10-29T19:36:17;100459.94;;;14.37;77.25
51524;BME280;37610;51.790;21.590;2022-10-29T19:40:19;100467.44;;;14.35;77.31
51524;BME280;37610;51.790;21.590;2022-10-29T19:44:20;100469.73;;;14.32;77.30
51524;BME280;37610;51.790;21.590;2022-10-29T19:48:23;100477.58;;;14.28;77.30
51524;BME280;37610;51.790;21.590;2022-10-29T19:52:24;100478.13;;;14.25;77.60
51524;BME280;37610;51.790;21.590;2022-10-29T19:56:26;100478.09;;;14.22;77.53
51524;BME280;37610;51.790;21.590;2022-10-29T20:00:27;100487.36;;;14.19;77.68
51524;BME280;37610;51.790;21.590;2022-10-29T20:04:29;100492.77;;;14.17;77.68
51524;BME280;37610;51.790;21.590;2022-10-29T20:08:30;100494.06;;;14.15;77.78
51524;BME280;37610;51.790;21.590;2022-10-29T20:12:32;100497.91;;;14.14;77.73
51524;BME280;37610;51.790;21.590;2022-10-29T20:16:33;100503.18;;;14.15;77.92
51524;BME280;37610;51.790;21.590;2022-10-29T20:20:35;100501.55;;;14.15;77.96
51524;BME280;37610;51.790;21.590;2022-10-29T20:24:36;100501.14;;;14.16;78.01
51524;BME280;37610;51.790;21.590;2022-10-29T20:28:38;100497.97;;;14.17;78.04
51524;BME280;37610;51.790;21.590;2022-10-29T20:32:40;100495.66;;;14.15;78.05
51524;BME280;37610;51.790;21.590;2022-10-29T20:36:41;100496.38;;;14.13;78.17
51524;BME280;37610;51.790;21.590;2022-10-29T20:40:49;100503.55;;;14.10;78.09
51524;BME280;37610;51.790;21.590;2022-10-29T20:44:50;100503.52;;;14.06;78.08
51524;BME280;37610;51.790;21.590;2022-10-29T20:48:52;100503.18;;;14.04;78.03
51524;BME280;37610;51.790;21.590;2022-10-29T20:52:54;100497.66;;;14.00;78.19
51524;BME280;37610;51.790;21.590;2022-10-29T20:56:55;100477.52;;;13.98;78.22
51524;BME280;37610;51.790;21.590;2022-10-29T21:01:08;100470.60;;;13.96;78.35
51524;BME280;37610;51.790;21.590;2022-10-29T21:05:10;100476.05;;;13.94;78.33
51524;BME280;37610;51.790;21.590;2022-10-29T21:09:11;100474.61;;;13.91;78.48
51524;BME280;37610;51.790;21.590;2022-10-29T21:13:13;100464.77;;;13.89;78.50
51524;BME280;37610;51.790;21.590;2022-10-29T21:17:14;100460.52;;;13.85;78.53
51524;BME280;37610;51.790;21.590;2022-10-29T21:21:16;100460.39;;;13.82;78.58
51524;BME280;37610;51.790;21.590;2022-10-29T21:25:18;100462.50;;;13.79;78.74
51524;BME280;37610;51.790;21.590;2022-10-29T21:29:19;100471.23;;;13.79;78.62
51524;BME280;37610;51.790;21.590;2022-10-29T21:33:21;100472.83;;;13.75;78.70
51524;BME280;37610;51.790;21.590;2022-10-29T21:37:22;100478.95;;;13.72;78.78
51524;BME280;37610;51.790;21.590;2022-10-29T21:41:24;100486.84;;;13.70;78.65
51524;BME280;37610;51.790;21.590;2022-10-29T21:45:25;100471.75;;;13.69;78.78
51524;BME280;37610;51.790;21.590;2022-10-29T21:49:26;100473.48;;;13.68;78.85
51524;BME280;37610;51.790;21.590;2022-10-29T21:53:28;100467.22;;;13.65;78.86
51524;BME280;37610;51.790;21.590;2022-10-29T21:57:30;100468.85;;;13.63;79.00
51524;BME280;37610;51.790;21.590;2022-10-29T22:01:31;100467.34;;;13.62;79.11
51524;BME280;37610;51.790;21.590;2022-10-29T22:05:33;100467.75;;;13.62;79.14
51524;BME280;37610;51.790;21.590;2022-10-29T22:09:34;100464.70;;;13.61;79.26
51524;BME280;37610;51.790;21.590;2022-10-29T22:13:36;100464.08;;;13.59;79.20
51524;BME280;37610;51.790;21.590;2022-10-29T22:17:37;100472.81;;;13.58;79.41
51524;BME280;37610;51.790;21.590;2022-10-29T22:21:39;100474.73;;;13.59;79.45
51524;BME280;37610;51.790;21.590;2022-10-29T22:25:41;100472.95;;;13.58;79.51
51524;BME280;37610;51.790;21.590;2022-10-29T22:29:42;100469.83;;;13.58;79.54
51524;BME280;37610;51.790;21.590;2022-10-29T22:33:44;100474.61;;;13.58;79.55
51524;BME280;37610;51.790;21.590;2022-10-29T22:37:46;100469.25;;;13.59;79.68
51524;BME280;37610;51.790;21.590;2022-10-29T22:41:47;100461.25;;;13.59;79.72
51524;BME280;37610;51.790;21.590;2022-10-29T22:45:49;100463.62;;;13.59;79.91
51524;BME280;37610;51.790;21.590;2022-10-29T22:49:50;100459.89;;;13.56;79.86
51524;BME280;37610;51.790;21.590;2022-10-29T22:53:52;100458.96;;;13.55;79.82
51524;BME280;37610;51.790;21.590;2022-10-29T22:57:54;100456.93;;;13.55;79.91
51524;BME280;37610;51.790;21.590;2022-10-29T23:01:56;100451.63;;;13.55;79.88
51524;BME280;37610;51.790;21.590;2022-10-29T23:05:59;100442.33;;;13.53;79.92
51524;BME280;37610;51.790;21.590;2022-10-29T23:10:01;100436.06;;;13.52;80.07